sensor_id;sensor_type;location;lat;lon;timestamp;temperature;humidity
20598;DHT22;10457;48.770;11.446;2022-08-19T00:01:33;19.50;99.90
20598;DHT22;10457;48.770;11.446;2022-08-19T00:06:57;19.50;99.90
20598;DHT22;10457;48.770;11.446;2022-08-19T00:12:20;19.50;99.90
20598;DHT22;10457;48.770;11.446;2022-08-19T00:17:43;19.50;99.90
20598;DHT22;10457;48.770;11.446;2022-08-19T00:23:05;19.60;99.90
20598;DHT22;10457;48.770;11.446;2022-08-19T00:28:28;19.60;99.90
20598;DHT22;10457;48.770;11.446;2022-08-19T00:33:50;19.60;99.90
20598;DHT22;10457;48.770;11.446;2022-08-19T00:39:13;19.50;99.90
20598;DHT22;10457;48.770;11.446;2022-08-19T00:44:38;19.50;99.90
20598;DHT22;10457;48.770;11.446;2022-08-19T00:49:59;19.50;99.90
20598;DHT22;10457;48.770;11.446;2022-08-19T00:55:24;19.50;99.90
20598;DHT22;10457;48.770;11.446;2022-08-19T01:00:50;19.50;99.90
20598;DHT22;10457;48.770;11.446;2022-08-19T01:06:11;19.50;99.90
20598;DHT22;10457;48.770;11.446;2022-08-19T01:11:36;19.50;99.90
20598;DHT22;10457;48.770;11.446;2022-08-19T01:17:01;19.50;99.90
20598;DHT22;10457;48.770;11.446;2022-08-19T01:22:30;19.50;99.90
20598;DHT22;10457;48.770;11.446;2022-08-19T01:27:53;19.50;99.90
20598;DHT22;10457;48.770;11.446;2022-08-19T01:33:15;19.50;99.90
20598;DHT22;10457;48.770;11.446;2022-08-19T01:38:40;19.50;99.90
20598;DHT22;10457;48.770;11.446;2022-08-19T01:44:04;19.30;99.90
20598;DHT22;10457;48.770;11.446;2022-08-19T01:49:26;19.40;99.90
20598;DHT22;10457;48.770;11.446;2022-08-19T01:54:49;19.30;99.90
20598;DHT22;10457;48.770;11.446;2022-08-19T02:00:13;19.30;99.90
20598;DHT22;10457;48.770;11.446;2022-08-19T02:05:37;19.20;99.90
20598;DHT22;10457;48.770;11.446;2022-08-19T02:11:00;19.20;99.90
20598;DHT22;10457;48.770;11.446;2022-08-19T02:16:22;19.20;99.90
20598;DHT22;10457;48.770;11.446;2022-08-19T02:21:44;19.20;99.90
20598;DHT22;10457;48.770;11.446;2022-08-19T02:27:07;19.20;99.90
20598;DHT22;10457;48.770;11.446;2022-08-19T02:32:28;19.20;99.90
20598;DHT22;10457;48.770;11.446;2022-08-19T02:37:50;19.10;99.90
20598;DHT22;10457;48.770;11.446;2022-08-19T02:43:32;19.00;99.90
20598;DHT22;10457;48.770;11.446;2022-08-19T02:48:56;19.00;99.90
20598;DHT22;10457;48.770;11.446;2022-08-19T02:54:20;19.10;99.90
20598;DHT22;10457;48.770;11.446;2022-08-19T02:59:43;19.10;99.90
20598;DHT22;10457;48.770;11.446;2022-08-19T03:05:06;19.10;99.90
20598;DHT22;10457;48.770;11.446;2022-08-19T03:10:29;19.10;99.90
20598;DHT22;10457;48.770;11.446;2022-08-19T03:15:52;19.10;99.90
20598;DHT22;10457;48.770;11.446;2022-08-19T03:21:15;19.10;99.90
20598;DHT22;10457;48.770;11.446;2022-08-19T03:26:39;19.20;99.90
20598;DHT22;10457;48.770;11.446;2022-08-19T03:32:05;19.20;99.90
20598;DHT22;10457;48.770;11.446;2022-08-19T03:37:27;19.20;99.90
20598;DHT22;10457;48.770;11.446;2022-08-19T03:42:49;19.10;99.90
20598;DHT22;10457;48.770;11.446;2022-08-19T03:48:12;19.10;99.90
20598;DHT22;10457;48.770;11.446;2022-08-19T03:53:35;19.10;99.90
20598;DHT22;10457;48.770;11.446;2022-08-19T03:58:57;19.10;99.90
20598;DHT22;10457;48.770;11.446;2022-08-19T04:04:20;19.10;99.90
20598;DHT22;10457;48.770;11.446;2022-08-19T04:09:42;19.20;99.90
20598;DHT22;10457;48.770;11.446;2022-08-19T04:15:04;19.20;99.90
20598;DHT22;10457;48.770;11.446;2022-08-19T04:20:28;19.10;99.90
20598;DHT22;10457;48.770;11.446;2022-08-19T04:25:51;19.10;99.90
20598;DHT22;10457;48.770;11.446;2022-08-19T04:31:13;19.20;99.90
20598;DHT22;10457;48.770;11.446;2022-08-19T04:36:38;19.20;99.90
20598;DHT22;10457;48.770;11.446;2022-08-19T04:42:01;19.20;99.90
20598;DHT22;10457;48.770;11.446;2022-08-19T04:47:42;19.10;99.90
20598;DHT22;10457;48.770;11.446;2022-08-19T04:53:06;19.20;99.90
20598;DHT22;10457;48.770;11.446;2022-08-19T04:58:28;19.20;99.90
20598;DHT22;10457;48.770;11.446;2022-08-19T05:03:50;19.30;99.90
20598;DHT22;10457;48.770;11.446;2022-08-19T05:09:13;19.30;99.90
20598;DHT22;10457;48.770;11.446;2022-08-19T05:14:35;19.30;99.90
20598;DHT22;10457;48.770;11.446;2022-08-19T05:19:57;19.30;99.90
20598;DHT22;10457;48.770;11.446;2022-08-19T05:25:39;19.30;99.90
20598;DHT22;10457;48.770;11.446;2022-08-19T05:31:01;19.40;99.90
20598;DHT22;10457;48.770;11.446;2022-08-19T05:36:23;19.60;99.90
20598;DHT22;10457;48.770;11.446;2022-08-19T05:41:48;19.60;99.90
20598;DHT22;10457;48.770;11.446;2022-08-19T05:47:13;19.70;99.90
20598;DHT22;10457;48.770;11.446;2022-08-19T05:52:37;19.80;99.90
20598;DHT22;10457;48.770;11.446;2022-08-19T05:58:00;19.80;99.90
20598;DHT22;10457;48.770;11.446;2022-08-19T06:03:22;19.70;99.90
20598;DHT22;10457;48.770;11.446;2022-08-19T06:08:44;19.60;99.90
20598;DHT22;10457;48.770;11.446;2022-08-19T06:14:14;19.60;99.90
20598;DHT22;10457;48.770;11.446;2022-08-19T06:19:37;19.70;99.90
20598;DHT22;10457;48.770;11.446;2022-08-19T06:25:01;19.80;99.90
20598;DHT22;10457;48.770;11.446;2022-08-19T06:30:26;19.80;99.90
20598;DHT22;10457;48.770;11.446;2022-08-19T06:35:47;19.90;99.90
20598;DHT22;10457;48.770;11.446;2022-08-19T06:41:09;20.00;99.90
20598;DHT22;10457;48.770;11.446;2022-08-19T06:46:32;20.00;99.90
20598;DHT22;10457;48.770;11.446;2022-08-19T06:51:53;20.10;99.90
20598;DHT22;10457;48.770;11.446;2022-08-19T06:57:16;20.10;99.90
20598;DHT22;10457;48.770;11.446;2022-08-19T07:02:39;20.00;99.90
20598;DHT22;10457;48.770;11.446;2022-08-19T07:08:01;20.10;99.90
20598;DHT22;10457;48.770;11.446;2022-08-19T07:13:25;20.10;99.90
20598;DHT22;10457;48.770;11.446;2022-08-19T07:18:49;20.10;99.90
20598;DHT22;10457;48.770;11.446;2022-08-19T07:24:11;20.20;99.90
20598;DHT22;10457;48.770;11.446;2022-08-19T07:29:35;20.20;99.90
20598;DHT22;10457;48.770;11.446;2022-08-19T07:34:58;20.20;99.90
20598;DHT22;10457;48.770;11.446;2022-08-19T07:40:23;20.30;99.90
20598;DHT22;10457;48.770;11.446;2022-08-19T07:45:45;20.30;99.90
20598;DHT22;10457;48.770;11.446;2022-08-19T07:51:10;20.30;99.90
20598;DHT22;10457;48.770;11.446;2022-08-19T07:56:32;20.30;99.90
20598;DHT22;10457;48.770;11.446;2022-08-19T08:01:54;20.30;99.90
20598;DHT22;10457;48.770;11.446;2022-08-19T08:07:17;20.30;99.90
20598;DHT22;10457;48.770;11.446;2022-08-19T08:12:56;20.40;99.90
20598;DHT22;10457;48.770;11.446;2022-08-19T08:18:17;20.50;99.90
20598;DHT22;10457;48.770;11.446;2022-08-19T08:23:42;20.60;99.90
20598;DHT22;10457;48.770;11.446;2022-08-19T08:29:03;20.70;99.90
20598;DHT22;10457;48.770;11.446;2022-08-19T08:34:27;20.60;99.90
20598;DHT22;10457;48.770;11.446;2022-08-19T08:39:50;20.70;99.90
20598;DHT22;10457;48.770;11.446;2022-08-19T08:45:14;20.80;99.90
20598;DHT22;10457;48.770;11.446;2022-08-19T08:50:41;21.10;99.90
20598;DHT22;10457;48.770;11.446;2022-08-19T08:56:07;21.20;99.90
20598;DHT22;10457;48.770;11.446;2022-08-19T09:01:32;21.10;99.90
20598;DHT22;10457;48.770;11.446;2022-08-19T09:06:59;21.20;99.90
20598;DHT22;10457;48.770;11.446;2022-08-19T09:12:36;21.50;99.90
20598;DHT22;10457;48.770;11.446;2022-08-19T09:18:01;21.80;99.90
20598;DHT22;10457;48.770;11.446;2022-08-19T09:23:24;22.00;99.90
20598;DHT22;10457;48.770;11.446;2022-08-19T09:28:48;22.00;99.90
20598;DHT22;10457;48.770;11.446;2022-08-19T09:34:10;22.10;99.90
20598;DHT22;10457;48.770;11.446;2022-08-19T09:39:32;22.00;99.90
20598;DHT22;10457;48.770;11.446;2022-08-19T09:44:55;22.00;99.90
20598;DHT22;10457;48.770;11.446;2022-08-19T09:50:17;21.70;99.90
20598;DHT22;10457;48.770;11.446;2022-08-19T09:55:42;21.50;99.90
20598;DHT22;10457;48.770;11.446;2022-08-19T10:01:06;21.40;99.90
20598;DHT22;10457;48.770;11.446;2022-08-19T10:06:29;21.20;99.90
20598;DHT22;10457;48.770;11.446;2022-08-19T10:11:53;21.20;99.90
20598;DHT22;10457;48.770;11.446;2022-08-19T10:17:16;21.10;99.90
20598;DHT22;10457;48.770;11.446;2022-08-19T10:22:38;20.90;99.90
20598;DHT22;10457;48.770;11.446;2022-08-19T10:28:01;20.90;99.90
20598;DHT22;10457;48.770;11.446;2022-08-19T10:33:24;21.00;99.90
20598;DHT22;10457;48.770;11.446;2022-08-19T10:38:50;21.00;99.90
20598;DHT22;10457;48.770;11.446;2022-08-19T10:44:13;20.90;99.90
20598;DHT22;10457;48.770;11.446;2022-08-19T10:49:37;20.80;99.90
20598;DHT22;10457;48.770;11.446;2022-08-19T10:55:21;20.80;99.90
20598;DHT22;10457;48.770;11.446;2022-08-19T11:01:17;20.70;99.90
20598;DHT22;10457;48.770;11.446;2022-08-19T11:06:39;20.60;99.90
20598;DHT22;10457;48.770;11.446;2022-08-19T11:12:03;20.50;99.90
20598;DHT22;10457;48.770;11.446;2022-08-19T11:17:25;20.40;99.90
20598;DHT22;10457;48.770;11.446;2022-08-19T11:22:48;20.40;99.90
20598;DHT22;10457;48.770;11.446;2022-08-19T11:28:09;20.40;99.90
20598;DHT22;10457;48.770;11.446;2022-08-19T11:33:32;20.40;99.90
20598;DHT22;10457;48.770;11.446;2022-08-19T11:38:55;20.20;99.90
20598;DHT22;10457;48.770;11.446;2022-08-19T11:44:16;20.10;99.90
20598;DHT22;10457;48.770;11.446;2022-08-19T11:49:38;19.80;99.90
20598;DHT22;10457;48.770;11.446;2022-08-19T11:55:01;19.70;99.90
20598;DHT22;10457;48.770;11.446;2022-08-19T12:00:23;19.50;99.90
20598;DHT22;10457;48.770;11.446;2022-08-19T12:05:45;19.30;99.90
20598;DHT22;10457;48.770;11.446;2022-08-19T12:11:09;19.30;99.90
20598;DHT22;10457;48.770;11.446;2022-08-19T12:16:31;19.20;99.90
20598;DHT22;10457;48.770;11.446;2022-08-19T12:21:58;19.30;99.90
20598;DHT22;10457;48.770;11.446;2022-08-19T12:27:22;19.30;99.90
20598;DHT22;10457;48.770;11.446;2022-08-19T12:32:44;19.50;99.90
20598;DHT22;10457;48.770;11.446;2022-08-19T12:38:05;19.50;99.90
20598;DHT22;10457;48.770;11.446;2022-08-19T12:43:28;19.50;99.90
20598;DHT22;10457;48.770;11.446;2022-08-19T12:48:50;19.40;99.90
20598;DHT22;10457;48.770;11.446;2022-08-19T12:54:13;19.50;99.90
20598;DHT22;10457;48.770;11.446;2022-08-19T12:59:36;19.60;99.90
20598;DHT22;10457;48.770;11.446;2022-08-19T13:04:58;19.50;99.90
20598;DHT22;10457;48.770;11.446;2022-08-19T13:10:21;19.50;99.90
20598;DHT22;10457;48.770;11.446;2022-08-19T13:15:44;19.40;99.90
20598;DHT22;10457;48.770;11.446;2022-08-19T13:21:07;19.30;99.90
20598;DHT22;10457;48.770;11.446;2022-08-19T13:26:31;19.20;99.90
20598;DHT22;10457;48.770;11.446;2022-08-19T13:31:54;19.20;99.90
20598;DHT22;10457;48.770;11.446;2022-08-19T13:37:33;19.30;99.90
20598;DHT22;10457;48.770;11.446;2022-08-19T13:43:04;19.30;99.90
20598;DHT22;10457;48.770;11.446;2022-08-19T13:48:27;19.30;99.90
20598;DHT22;10457;48.770;11.446;2022-08-19T13:53:51;19.20;99.90
20598;DHT22;10457;48.770;11.446;2022-08-19T13:59:13;19.20;99.90
20598;DHT22;10457;48.770;11.446;2022-08-19T14:04:36;19.30;99.90
20598;DHT22;10457;48.770;11.446;2022-08-19T14:09:58;19.30;99.90
20598;DHT22;10457;48.770;11.446;2022-08-19T14:15:20;19.30;99.90
20598;DHT22;10457;48.770;11.446;2022-08-19T14:20:43;19.30;99.90
20598;DHT22;10457;48.770;11.446;2022-08-19T14:26:10;19.30;99.90
20598;DHT22;10457;48.770;11.446;2022-08-19T14:31:33;19.30;99.90
20598;DHT22;10457;48.770;11.446;2022-08-19T14:36:56;19.40;99.90
20598;DHT22;10457;48.770;11.446;2022-08-19T14:42:19;19.40;99.90
20598;DHT22;10457;48.770;11.446;2022-08-19T14:47:40;19.50;99.90
20598;DHT22;10457;48.770;11.446;2022-08-19T14:53:05;19.60;99.90
20598;DHT22;10457;48.770;11.446;2022-08-19T14:58:28;19.70;99.90
20598;DHT22;10457;48.770;11.446;2022-08-19T15:03:50;19.80;99.90
20598;DHT22;10457;48.770;11.446;2022-08-19T15:09:15;19.90;99.90
20598;DHT22;10457;48.770;11.446;2022-08-19T15:14:36;19.80;99.90
20598;DHT22;10457;48.770;11.446;2022-08-19T15:19:58;19.80;99.90
20598;DHT22;10457;48.770;11.446;2022-08-19T15:25:22;19.90;99.90
20598;DHT22;10457;48.770;11.446;2022-08-19T15:30:44;20.10;99.90
20598;DHT22;10457;48.770;11.446;2022-08-19T15:36:06;20.00;99.90
20598;DHT22;10457;48.770;11.446;2022-08-19T15:41:30;19.80;99.90
20598;DHT22;10457;48.770;11.446;2022-08-19T15:46:52;19.80;99.90
20598;DHT22;10457;48.770;11.446;2022-08-19T15:52:13;19.70;99.90
20598;DHT22;10457;48.770;11.446;2022-08-19T15:57:36;19.70;99.90
20598;DHT22;10457;48.770;11.446;2022-08-19T16:03:15;19.80;99.90
20598;DHT22;10457;48.770;11.446;2022-08-19T16:08:56;19.80;99.90
20598;DHT22;10457;48.770;11.446;2022-08-19T16:14:20;19.70;99.90
20598;DHT22;10457;48.770;11.446;2022-08-19T16:19:42;19.80;99.90
20598;DHT22;10457;48.770;11.446;2022-08-19T16:25:04;19.90;99.90
20598;DHT22;10457;48.770;11.446;2022-08-19T16:30:28;19.90;99.90
20598;DHT22;10457;48.770;11.446;2022-08-19T16:35:50;19.80;99.90
20598;DHT22;10457;48.770;11.446;2022-08-19T16:41:11;19.70;99.90
20598;DHT22;10457;48.770;11.446;2022-08-19T16:46:35;19.60;99.90
20598;DHT22;10457;48.770;11.446;2022-08-19T16:51:57;19.50;99.90
20598;DHT22;10457;48.770;11.446;2022-08-19T16:57:21;19.40;99.90
20598;DHT22;10457;48.770;11.446;2022-08-19T17:02:45;19.20;99.90
20598;DHT22;10457;48.770;11.446;2022-08-19T17:08:06;19.00;99.90
20598;DHT22;10457;48.770;11.446;2022-08-19T17:13:28;18.90;99.90
20598;DHT22;10457;48.770;11.446;2022-08-19T17:18:51;18.80;99.90
20598;DHT22;10457;48.770;11.446;2022-08-19T17:24:14;18.80;99.90
20598;DHT22;10457;48.770;11.446;2022-08-19T17:29:36;18.70;99.90
20598;DHT22;10457;48.770;11.446;2022-08-19T17:34:59;18.60;99.90
20598;DHT22;10457;48.770;11.446;2022-08-19T17:40:23;18.30;99.90
20598;DHT22;10457;48.770;11.446;2022-08-19T17:45:45;18.10;99.90
20598;DHT22;10457;48.770;11.446;2022-08-19T17:51:15;18.00;99.90
20598;DHT22;10457;48.770;11.446;2022-08-19T17:56:37;17.80;99.90
20598;DHT22;10457;48.770;11.446;2022-08-19T18:01:58;17.70;99.90
20598;DHT22;10457;48.770;11.446;2022-08-19T18:07:21;17.60;99.90
20598;DHT22;10457;48.770;11.446;2022-08-19T18:12:43;17.60;99.90
20598;DHT22;10457;48.770;11.446;2022-08-19T18:18:05;17.50;99.90
20598;DHT22;10457;48.770;11.446;2022-08-19T18:23:28;17.40;99.90
20598;DHT22;10457;48.770;11.446;2022-08-19T18:28:50;17.40;99.90
20598;DHT22;10457;48.770;11.446;2022-08-19T18:34:13;17.40;99.90
20598;DHT22;10457;48.770;11.446;2022-08-19T18:39:36;17.40;99.90
20598;DHT22;10457;48.770;11.446;2022-08-19T18:45:15;17.30;99.90
20598;DHT22;10457;48.770;11.446;2022-08-19T18:50:55;17.30;99.90
20598;DHT22;10457;48.770;11.446;2022-08-19T18:56:19;17.30;99.90
20598;DHT22;10457;48.770;11.446;2022-08-19T19:01:45;17.20;99.90
20598;DHT22;10457;48.770;11.446;2022-08-19T19:07:10;17.10;99.90
20598;DHT22;10457;48.770;11.446;2022-08-19T19:12:35;17.10;99.90
20598;DHT22;10457;48.770;11.446;2022-08-19T19:18:00;17.10;99.90
20598;DHT22;10457;48.770;11.446;2022-08-19T19:23:22;17.10;99.90
20598;DHT22;10457;48.770;11.446;2022-08-19T19:28:45;17.10;99.90
20598;DHT22;10457;48.770;11.446;2022-08-19T19:34:07;17.10;99.90
20598;DHT22;10457;48.770;11.446;2022-08-19T19:39:29;17.10;99.90
20598;DHT22;10457;48.770;11.446;2022-08-19T19:44:54;17.00;99.90
20598;DHT22;10457;48.770;11.446;2022-08-19T19:50:17;17.00;99.90
20598;DHT22;10457;48.770;11.446;2022-08-19T19:55:38;17.00;99.90
20598;DHT22;10457;48.770;11.446;2022-08-19T20:01:03;16.90;99.90
20598;DHT22;10457;48.770;11.446;2022-08-19T20:06:27;16.90;99.90
20598;DHT22;10457;48.770;11.446;2022-08-19T20:11:51;17.00;99.90
20598;DHT22;10457;48.770;11.446;2022-08-19T20:17:15;16.90;99.90
20598;DHT22;10457;48.770;11.446;2022-08-19T20:22:40;16.90;99.90
20598;DHT22;10457;48.770;11.446;2022-08-19T20:28:03;16.90;99.90
20598;DHT22;10457;48.770;11.446;2022-08-19T20:33:26;16.90;99.90
20598;DHT22;10457;48.770;11.446;2022-08-19T20:39:10;16.90;99.90
20598;DHT22;10457;48.770;11.446;2022-08-19T20:44:43;16.90;99.90
20598;DHT22;10457;48.770;11.446;2022-08-19T20:50:06;16.90;99.90
20598;DHT22;10457;48.770;11.446;2022-08-19T20:55:28;16.80;99.90
20598;DHT22;10457;48.770;11.446;2022-08-19T21:00:53;16.90;99.90
20598;DHT22;10457;48.770;11.446;2022-08-19T21:06:18;16.80;99.90
20598;DHT22;10457;48.770;11.446;2022-08-19T21:11:40;16.70;99.90
20598;DHT22;10457;48.770;11.446;2022-08-19T21:17:04;16.60;99.90
20598;DHT22;10457;48.770;11.446;2022-08-19T21:22:26;16.60;99.90
20598;DHT22;10457;48.770;11.446;2022-08-19T21:27:47;16.60;99.90
20598;DHT22;10457;48.770;11.446;2022-08-19T21:33:10;16.60;99.90
20598;DHT22;10457;48.770;11.446;2022-08-19T21:38:32;16.60;99.90
20598;DHT22;10457;48.770;11.446;2022-08-19T21:43:54;16.50;99.90
20598;DHT22;10457;48.770;11.446;2022-08-19T21:49:17;16.50;99.90
20598;DHT22;10457;48.770;11.446;2022-08-19T21:54:38;16.50;99.90
20598;DHT22;10457;48.770;11.446;2022-08-19T22:00:00;16.50;99.90
20598;DHT22;10457;48.770;11.446;2022-08-19T22:05:27;16.50;99.90
20598;DHT22;10457;48.770;11.446;2022-08-19T22:10:50;16.50;99.90
20598;DHT22;10457;48.770;11.446;2022-08-19T22:16:11;16.60;99.90
20598;DHT22;10457;48.770;11.446;2022-08-19T22:21:35;16.60;99.90
20598;DHT22;10457;48.770;11.446;2022-08-19T22:26:57;16.60;99.90
20598;DHT22;10457;48.770;11.446;2022-08-19T22:32:20;16.60;99.90
20598;DHT22;10457;48.770;11.446;2022-08-19T22:37:43;16.70;99.90
20598;DHT22;10457;48.770;11.446;2022-08-19T22:43:07;16.60;99.90
20598;DHT22;10457;48.770;11.446;2022-08-19T22:48:31;16.70;99.90
20598;DHT22;10457;48.770;11.446;2022-08-19T22:53:54;16.70;99.90
20598;DHT22;10457;48.770;11.446;2022-08-19T22:59:15;16.70;99.90
20598;DHT22;10457;48.770;11.446;2022-08-19T23:04:37;16.70;99.90
20598;DHT22;10457;48.770;11.446;2022-08-19T23:10:00;16.90;99.90
20598;DHT22;10457;48.770;11.446;2022-08-19T23:15:25;16.90;99.90
20598;DHT22;10457;48.770;11.446;2022-08-19T23:20:48;16.90;99.90
20598;DHT22;10457;48.770;11.446;2022-08-19T23:26:14;16.90;99.90
20598;DHT22;10457;48.770;11.446;2022-08-19T23:31:35;16.80;99.90
20598;DHT22;10457;48.770;11.446;2022-08-19T23:36:57;16.80;99.90
20598;DHT22;10457;48.770;11.446;2022-08-19T23:42:20;16.80;99.90
20598;DHT22;10457;48.770;11.446;2022-08-19T23:47:42;16.90;99.90
20598;DHT22;10457;48.770;11.446;2022-08-19T23:53:04;16.90;99.90
20598;DHT22;10457;48.770;11.446;2022-08-19T23:58:26;16.80;99.90
